createdAt,value
2022-10-02T00:02:39.562Z,11.76
2022-10-02T00:05:48.628Z,11.76
2022-10-02T00:08:59.375Z,11.72
2022-10-02T00:12:06.221Z,11.75
2022-10-02T00:15:16.456Z,11.73
2022-10-02T00:18:24.517Z,11.75
2022-10-02T00:21:31.740Z,11.74
2022-10-02T00:25:02.294Z,11.74
2022-10-02T00:28:10.730Z,11.84
2022-10-02T00:31:30.306Z,11.75
2022-10-02T00:35:04.091Z,11.74
2022-10-02T00:38:21.779Z,11.78
2022-10-02T00:42:00.018Z,11.73
2022-10-02T00:45:31.746Z,11.82
2022-10-02T00:48:51.569Z,11.74
2022-10-02T00:52:15.124Z,11.77
2022-10-02T00:55:41.603Z,11.73
2022-10-02T00:58:51.812Z,11.74
2022-10-02T01:02:04.957Z,11.72
2022-10-02T01:05:09.806Z,11.68
2022-10-02T01:08:14.472Z,11.67
2022-10-02T01:11:20.620Z,11.69
2022-10-02T01:14:35.425Z,11.63
2022-10-02T01:17:39.967Z,11.57
2022-10-02T01:20:48.432Z,11.62
2022-10-02T01:24:11.645Z,11.59
2022-10-02T01:27:15.926Z,11.53
2022-10-02T01:30:20.966Z,11.61
2022-10-02T01:33:25.378Z,11.65
2022-10-02T01:36:31.232Z,11.64
2022-10-02T01:39:35.264Z,11.70
2022-10-02T01:42:40.307Z,11.73
2022-10-02T01:45:51.696Z,11.79
2022-10-02T01:49:11.714Z,11.82
2022-10-02T01:52:30.907Z,11.87
2022-10-02T01:55:44.618Z,11.88
2022-10-02T01:58:58.443Z,11.88
2022-10-02T02:02:16.696Z,11.87
2022-10-02T02:05:30.941Z,11.94
2022-10-02T02:08:42.914Z,11.87
2022-10-02T02:12:08.887Z,11.89
2022-10-02T02:15:28.730Z,11.99
2022-10-02T02:18:59.601Z,11.97
2022-10-02T02:22:15.795Z,12.01
2022-10-02T02:25:25.405Z,11.94
2022-10-02T02:28:32.599Z,11.94
2022-10-02T02:31:41.364Z,11.87
2022-10-02T02:34:54.552Z,11.84
2022-10-02T02:38:05.929Z,11.80
2022-10-02T02:41:15.376Z,11.82
2022-10-02T02:44:28.083Z,11.82
2022-10-02T02:47:41.690Z,11.78
2022-10-02T02:50:50.030Z,11.80
2022-10-02T02:54:01.821Z,11.71
2022-10-02T02:57:08.426Z,11.72
2022-10-02T03:00:15.511Z,11.65
2022-10-02T03:03:19.854Z,11.66
2022-10-02T03:06:31.685Z,11.66
2022-10-02T03:09:37.873Z,11.71
2022-10-02T03:13:17.544Z,11.67
2022-10-02T03:16:47.789Z,11.63
2022-10-02T03:20:03.337Z,11.63
2022-10-02T03:23:31.077Z,11.59
2022-10-02T03:26:41.192Z,11.54
2022-10-02T03:29:50.388Z,11.52
2022-10-02T03:32:56.314Z,11.54
2022-10-02T03:36:00.706Z,11.52
2022-10-02T03:39:24.692Z,11.55
2022-10-02T03:42:33.074Z,11.53
2022-10-02T03:45:50.871Z,11.54
2022-10-02T03:48:56.604Z,11.54
2022-10-02T03:52:01.132Z,11.58
2022-10-02T03:55:17.540Z,11.69
2022-10-02T03:58:22.062Z,11.71
2022-10-02T04:01:31.928Z,11.78
2022-10-02T04:04:46.401Z,11.77
2022-10-02T04:07:54.922Z,11.78
2022-10-02T04:11:11.006Z,11.74
2022-10-02T04:14:24.605Z,11.75
2022-10-02T04:17:46.946Z,11.78
2022-10-02T04:21:05.936Z,11.67
2022-10-02T04:24:24.751Z,11.61
2022-10-02T04:27:40.261Z,11.52
2022-10-02T04:30:44.154Z,11.50
2022-10-02T04:33:48.161Z,11.50
2022-10-02T04:37:09.733Z,11.45
2022-10-02T04:40:26.063Z,11.44
2022-10-02T04:44:14.652Z,11.45
2022-10-02T04:47:55.430Z,11.41
2022-10-02T04:51:23.481Z,11.40
2022-10-02T04:55:01.750Z,11.34
2022-10-02T04:58:30.244Z,11.31
2022-10-02T05:01:58.106Z,11.24
2022-10-02T05:05:17.508Z,11.22
2022-10-02T05:08:46.209Z,11.22
2022-10-02T05:11:58.008Z,11.22
2022-10-02T05:15:20.183Z,11.28
2022-10-02T05:18:23.859Z,11.23
2022-10-02T05:21:46.645Z,11.24
2022-10-02T05:25:19.458Z,11.24
2022-10-02T05:28:45.665Z,11.26
2022-10-02T05:32:17.230Z,11.26
2022-10-02T05:35:26.063Z,11.31
2022-10-02T05:38:54.804Z,11.25
2022-10-02T05:42:10.880Z,11.25
2022-10-02T05:45:27.145Z,11.22
2022-10-02T05:48:46.158Z,11.20
2022-10-02T05:51:59.679Z,11.17
2022-10-02T05:55:31.571Z,11.14
2022-10-02T05:58:51.416Z,11.14
2022-10-02T06:01:57.932Z,11.17
2022-10-02T06:05:19.341Z,11.22
2022-10-02T06:08:41.270Z,11.23
2022-10-02T06:11:57.951Z,11.32
2022-10-02T06:15:19.815Z,11.37
2022-10-02T06:18:26.946Z,11.43
2022-10-02T06:21:47.648Z,11.55
2022-10-02T06:25:13.867Z,11.64
2022-10-02T06:29:00.491Z,11.70
2022-10-02T06:32:45.660Z,11.81
2022-10-02T06:36:21.427Z,11.87
2022-10-02T06:39:41.495Z,11.91
2022-10-02T06:43:05.755Z,12.01
2022-10-02T06:46:33.691Z,12.11
2022-10-02T06:49:57.913Z,12.22
2022-10-02T06:53:12.655Z,12.47
2022-10-02T06:56:36.264Z,12.78
2022-10-02T06:59:48.745Z,13.00
2022-10-02T07:03:02.005Z,13.14
2022-10-02T07:06:30.988Z,13.25
2022-10-02T07:09:46.924Z,13.29
2022-10-02T07:13:09.341Z,13.35
2022-10-02T07:16:49.056Z,13.39
2022-10-02T07:20:31.161Z,13.44
2022-10-02T07:23:42.713Z,13.33
2022-10-02T07:26:54.401Z,13.38
2022-10-02T07:30:09.146Z,13.55
2022-10-02T07:33:42.349Z,13.86
2022-10-02T07:37:05.021Z,14.19
2022-10-02T07:40:34.995Z,14.45
2022-10-02T07:44:05.307Z,14.69
2022-10-02T07:47:32.513Z,14.70
2022-10-02T07:50:48.910Z,14.66
2022-10-02T07:54:04.216Z,14.65
2022-10-02T07:57:40.702Z,14.56
2022-10-02T08:00:51.287Z,14.26
2022-10-02T08:04:01.089Z,14.11
2022-10-02T08:07:06.736Z,14.14
2022-10-02T08:10:14.253Z,14.14
2022-10-02T08:13:22.700Z,14.20
2022-10-02T08:16:33.392Z,14.26
2022-10-02T08:19:43.287Z,14.34
2022-10-02T08:22:53.355Z,14.41
2022-10-02T08:26:19.722Z,14.42
2022-10-02T08:29:31.753Z,14.47
2022-10-02T08:32:36.963Z,14.48
2022-10-02T08:35:55.180Z,14.51
2022-10-02T08:39:36.937Z,14.59
2022-10-02T08:43:16.216Z,14.61
2022-10-02T08:46:59.415Z,14.67
2022-10-02T08:50:52.012Z,14.62
2022-10-02T08:54:15.489Z,14.63
2022-10-02T08:57:41.544Z,14.57
2022-10-02T09:01:09.917Z,14.67
2022-10-02T09:04:39.826Z,14.75
2022-10-02T09:08:21.692Z,14.87
2022-10-02T09:12:00.371Z,15.04
2022-10-02T09:15:26.918Z,15.08
2022-10-02T09:18:49.441Z,15.11
2022-10-02T09:21:58.984Z,15.25
2022-10-02T09:25:35.871Z,15.33
2022-10-02T09:29:13.993Z,15.57
2022-10-02T09:32:43.346Z,15.77
2022-10-02T09:36:36.921Z,15.85
2022-10-02T09:40:15.601Z,15.78
2022-10-02T09:43:43.611Z,15.74
2022-10-02T09:47:09.320Z,15.65
2022-10-02T09:50:16.530Z,15.71
2022-10-02T09:53:52.928Z,15.78
2022-10-02T09:57:42.722Z,15.96
2022-10-02T10:01:15.544Z,16.14
2022-10-02T10:05:04.634Z,16.25
2022-10-02T10:08:20.917Z,16.26
2022-10-02T10:11:38.851Z,16.02
2022-10-02T10:14:48.080Z,16.00
2022-10-02T10:18:10.641Z,15.82
2022-10-02T10:22:08.959Z,15.63
2022-10-02T10:25:32.945Z,15.74
2022-10-02T10:29:04.741Z,15.87
2022-10-02T10:32:41.081Z,15.99
2022-10-02T10:36:02.662Z,16.06
2022-10-02T10:39:33.561Z,16.18
2022-10-02T10:43:07.053Z,16.03
2022-10-02T10:46:40.952Z,16.02
2022-10-02T10:50:02.721Z,16.06
2022-10-02T10:54:01.951Z,16.04
2022-10-02T10:57:33.479Z,16.05
2022-10-02T11:01:08.499Z,16.15
2022-10-02T11:04:52.309Z,16.18
2022-10-02T11:08:24.423Z,16.29
2022-10-02T11:11:50.585Z,16.64
2022-10-02T11:15:15.230Z,16.85
2022-10-02T11:18:38.722Z,16.98
2022-10-02T11:21:45.378Z,16.95
2022-10-02T11:25:12.539Z,17.00
2022-10-02T11:29:07.494Z,16.94
2022-10-02T11:33:05.630Z,16.90
2022-10-02T11:36:42.500Z,17.00
2022-10-02T11:39:58.834Z,16.96
2022-10-02T11:43:13.861Z,16.98
2022-10-02T11:46:27.854Z,16.99
2022-10-02T11:49:53.294Z,16.99
2022-10-02T11:53:00.280Z,16.91
2022-10-02T11:56:25.649Z,17.01
2022-10-02T12:00:04.687Z,17.01
2022-10-02T12:03:36.374Z,16.94
2022-10-02T12:06:53.050Z,16.94
2022-10-02T12:10:18.643Z,16.81
2022-10-02T12:13:51.151Z,16.67
2022-10-02T12:17:16.450Z,16.68
2022-10-02T12:21:10.072Z,16.73
2022-10-02T12:24:44.664Z,16.78
2022-10-02T12:28:07.053Z,16.89
2022-10-02T12:31:51.074Z,17.15
2022-10-02T12:35:20.792Z,17.06
2022-10-02T12:38:53.433Z,16.93
2022-10-02T12:42:19.430Z,17.06
2022-10-02T12:45:32.618Z,17.21
2022-10-02T12:48:53.935Z,17.54
2022-10-02T12:52:43.241Z,17.66
2022-10-02T12:56:18.913Z,17.58
2022-10-02T12:59:50.024Z,17.54
2022-10-02T13:03:19.037Z,17.25
2022-10-02T13:06:33.813Z,17.07
2022-10-02T13:09:50.053Z,17.02
2022-10-02T13:13:24.762Z,16.97
2022-10-02T13:16:52.850Z,16.89
2022-10-02T13:20:06.443Z,16.89
2022-10-02T13:23:18.954Z,16.86
2022-10-02T13:26:33.128Z,16.96
2022-10-02T13:30:16.631Z,16.88
2022-10-02T13:33:50.985Z,16.81
2022-10-02T13:37:13.799Z,16.84
2022-10-02T13:40:38.011Z,16.67
2022-10-02T13:44:07.313Z,16.56
2022-10-02T13:47:22.510Z,16.41
2022-10-02T13:50:46.601Z,16.34
2022-10-02T13:53:58.964Z,16.25
2022-10-02T13:57:29.098Z,16.24
2022-10-02T14:00:38.746Z,16.26
2022-10-02T14:04:10.840Z,16.20
2022-10-02T14:07:33.155Z,16.27
2022-10-02T14:11:03.668Z,16.21
2022-10-02T14:14:26.037Z,16.21
2022-10-02T14:17:48.616Z,16.29
2022-10-02T14:21:15.630Z,16.30
2022-10-02T14:24:59.637Z,16.25
2022-10-02T14:28:28.308Z,16.22
2022-10-02T14:32:00.861Z,16.18
2022-10-02T14:35:24.037Z,16.25
2022-10-02T14:38:41.522Z,16.25
2022-10-02T14:42:28.436Z,16.25
2022-10-02T14:45:56.617Z,16.20
2022-10-02T14:49:29.965Z,16.17
2022-10-02T14:53:16.028Z,16.15
2022-10-02T14:56:32.821Z,16.17
2022-10-02T14:59:49.459Z,16.13
2022-10-02T15:03:38.103Z,16.15
2022-10-02T15:07:03.894Z,16.19
2022-10-02T15:10:26.282Z,16.23
2022-10-02T15:13:43.128Z,16.21
2022-10-02T15:17:13.241Z,16.19
2022-10-02T15:20:29.902Z,16.17
2022-10-02T15:23:33.512Z,16.12
2022-10-02T15:27:07.372Z,16.05
2022-10-02T15:30:20.560Z,16.01
2022-10-02T15:33:42.314Z,15.83
2022-10-02T15:37:13.250Z,15.57
2022-10-02T15:40:38.705Z,15.32
2022-10-02T15:44:15.654Z,15.14
2022-10-02T15:47:35.730Z,15.02
2022-10-02T15:51:14.120Z,14.86
2022-10-02T15:54:40.214Z,14.75
2022-10-02T15:57:54.791Z,14.61
2022-10-02T16:01:25.441Z,14.51
2022-10-02T16:04:42.762Z,14.46
2022-10-02T16:08:26.365Z,14.37
2022-10-02T16:11:52.602Z,14.30
2022-10-02T16:15:15.203Z,14.28
2022-10-02T16:18:40.744Z,14.20
2022-10-02T16:22:04.721Z,14.19
2022-10-02T16:25:22.147Z,14.16
2022-10-02T16:28:38.508Z,14.16
2022-10-02T16:31:55.090Z,14.07
2022-10-02T16:35:31.927Z,14.08
2022-10-02T16:38:53.240Z,14.05
2022-10-02T16:42:10.720Z,14.04
2022-10-02T16:45:44.042Z,13.99
2022-10-02T16:49:01.889Z,13.93
2022-10-02T16:52:14.220Z,13.91
2022-10-02T16:55:30.772Z,13.88
2022-10-02T16:59:02.878Z,13.88
2022-10-02T17:02:26.318Z,13.79
2022-10-02T17:05:36.776Z,13.58
2022-10-02T17:08:50.648Z,13.48
2022-10-02T17:12:20.315Z,13.42
2022-10-02T17:16:03.192Z,13.37
2022-10-02T17:19:46.479Z,13.30
2022-10-02T17:23:04.521Z,13.30
2022-10-02T17:26:24.644Z,13.29
2022-10-02T17:29:39.079Z,13.17
2022-10-02T17:32:46.508Z,13.18
2022-10-02T17:36:06.566Z,13.14
2022-10-02T17:39:34.557Z,13.19
2022-10-02T17:42:53.490Z,13.12
2022-10-02T17:46:06.897Z,13.16
2022-10-02T17:49:31.499Z,13.05
2022-10-02T17:53:12.920Z,13.00
2022-10-02T17:56:49.880Z,13.00
2022-10-02T18:00:12.728Z,12.97
2022-10-02T18:03:48.104Z,12.93
2022-10-02T18:07:08.798Z,12.90
2022-10-02T18:10:32.154Z,12.83
2022-10-02T18:14:06.090Z,12.81
2022-10-02T18:17:47.794Z,12.77
2022-10-02T18:21:13.609Z,12.82
2022-10-02T18:24:32.126Z,12.85
2022-10-02T18:27:56.480Z,12.80
2022-10-02T18:31:53.999Z,12.80
2022-10-02T18:35:15.312Z,12.78
2022-10-02T18:38:31.077Z,12.75
2022-10-02T18:41:59.598Z,12.76
2022-10-02T18:45:31.475Z,12.72
2022-10-02T18:48:53.686Z,12.71
2022-10-02T18:52:09.410Z,12.68
2022-10-02T18:55:51.040Z,12.66
2022-10-02T18:59:19.070Z,12.73
2022-10-02T19:02:42.769Z,12.75
2022-10-02T19:06:08.549Z,12.81
2022-10-02T19:09:20.944Z,12.84
2022-10-02T19:12:24.924Z,12.83
2022-10-02T19:15:32.026Z,12.88
2022-10-02T19:18:36.760Z,12.85
2022-10-02T19:21:41.171Z,12.86
2022-10-02T19:24:53.979Z,12.86
2022-10-02T19:27:59.785Z,12.87
2022-10-02T19:31:07.973Z,12.87
2022-10-02T19:34:17.074Z,12.81
2022-10-02T19:37:23.346Z,12.82
2022-10-02T19:40:35.004Z,12.77
2022-10-02T19:43:59.940Z,12.79
2022-10-02T19:47:16.729Z,12.72
2022-10-02T19:50:25.700Z,12.66
2022-10-02T19:53:34.995Z,12.62
2022-10-02T19:56:43.688Z,12.62
2022-10-02T19:59:52.946Z,12.54
2022-10-02T20:02:59.548Z,12.46
2022-10-02T20:06:12.167Z,12.46
2022-10-02T20:09:41.886Z,12.42
2022-10-02T20:12:55.410Z,12.41
2022-10-02T20:16:21.294Z,12.34
2022-10-02T20:19:34.322Z,12.38
2022-10-02T20:22:49.761Z,12.41
2022-10-02T20:25:58.331Z,12.37
2022-10-02T20:29:07.613Z,12.33
2022-10-02T20:32:20.140Z,12.28
2022-10-02T20:35:34.667Z,12.25
2022-10-02T20:38:45.189Z,12.25
2022-10-02T20:42:05.097Z,12.22
2022-10-02T20:45:12.065Z,12.21
2022-10-02T20:49:14.022Z,12.23
2022-10-02T20:53:02.097Z,12.25
2022-10-02T20:56:27.488Z,12.27
2022-10-02T20:59:57.118Z,12.29
2022-10-02T21:03:19.772Z,12.25
2022-10-02T21:06:32.655Z,12.24
2022-10-02T21:09:48.893Z,12.23
2022-10-02T21:13:35.322Z,12.17
2022-10-02T21:17:17.533Z,12.11
2022-10-02T21:20:53.778Z,12.09
2022-10-02T21:24:07.280Z,12.05
2022-10-02T21:27:14.275Z,12.00
2022-10-02T21:30:19.816Z,12.01
2022-10-02T21:33:54.709Z,12.00
2022-10-02T21:37:13.005Z,11.99
2022-10-02T21:40:32.987Z,11.98
2022-10-02T21:43:40.054Z,11.91
2022-10-02T21:47:08.134Z,11.93
2022-10-02T21:50:45.710Z,11.95
2022-10-02T21:54:14.871Z,11.86
2022-10-02T21:57:36.984Z,11.75
2022-10-02T22:01:09.261Z,11.75
2022-10-02T22:04:46.423Z,11.74
2022-10-02T22:08:12.357Z,11.66
2022-10-02T22:11:55.140Z,11.64
2022-10-02T22:15:07.741Z,11.67
2022-10-02T22:18:32.051Z,11.70
2022-10-02T22:22:01.639Z,11.61
2022-10-02T22:25:33.344Z,11.61
2022-10-02T22:28:47.271Z,11.57
2022-10-02T22:32:26.999Z,11.61
2022-10-02T22:35:46.422Z,11.55
2022-10-02T22:39:01.417Z,11.54
2022-10-02T22:42:24.299Z,11.52
2022-10-02T22:45:44.284Z,11.51
2022-10-02T22:49:15.950Z,11.57
2022-10-02T22:52:24.171Z,11.59
2022-10-02T22:55:33.877Z,11.56
2022-10-02T22:58:44.740Z,11.53
2022-10-02T23:01:53.670Z,11.56
2022-10-02T23:05:16.474Z,11.55
2022-10-02T23:08:46.618Z,11.55
2022-10-02T23:12:27.685Z,11.50
2022-10-02T23:15:52.871Z,11.47
2022-10-02T23:19:05.802Z,11.44
2022-10-02T23:22:25.640Z,11.42
2022-10-02T23:26:00.480Z,11.40
2022-10-02T23:29:44.889Z,11.38
2022-10-02T23:32:57.632Z,11.34
2022-10-02T23:36:07.037Z,11.36
2022-10-02T23:39:24.224Z,11.41
2022-10-02T23:42:40.764Z,11.41
2022-10-02T23:45:50.647Z,11.45
2022-10-02T23:48:55.129Z,11.41
2022-10-02T23:52:31.492Z,11.43
2022-10-02T23:55:51.666Z,11.41
2022-10-02T23:59:04.685Z,11.40
